sensor_id;sensor_type;location;lat;lon;timestamp;P1;durP1;ratioP1;P2;durP2;ratioP2
7410;SDS011;3747;48.628;9.058;2023-07-29T00:04:45;2.77;;;1.83;;
7410;SDS011;3747;48.628;9.058;2023-07-29T00:07:12;1.60;;;1.40;;
7410;SDS011;3747;48.628;9.058;2023-07-29T00:09:40;1.77;;;1.67;;
7410;SDS011;3747;48.628;9.058;2023-07-29T00:12:07;2.20;;;1.83;;
7410;SDS011;3747;48.628;9.058;2023-07-29T00:14:33;1.90;;;1.53;;
7410;SDS011;3747;48.628;9.058;2023-07-29T00:17:00;3.10;;;1.87;;
7410;SDS011;3747;48.628;9.058;2023-07-29T00:19:27;1.60;;;1.50;;
7410;SDS011;3747;48.628;9.058;2023-07-29T00:21:53;2.53;;;1.60;;
7410;SDS011;3747;48.628;9.058;2023-07-29T00:24:20;2.00;;;1.80;;
7410;SDS011;3747;48.628;9.058;2023-07-29T00:26:48;2.33;;;1.63;;
7410;SDS011;3747;48.628;9.058;2023-07-29T00:29:15;2.27;;;1.57;;
7410;SDS011;3747;48.628;9.058;2023-07-29T00:31:42;1.97;;;1.87;;
7410;SDS011;3747;48.628;9.058;2023-07-29T00:34:08;1.93;;;1.40;;
7410;SDS011;3747;48.628;9.058;2023-07-29T00:36:35;2.30;;;1.37;;
7410;SDS011;3747;48.628;9.058;2023-07-29T00:39:02;3.07;;;1.67;;
7410;SDS011;3747;48.628;9.058;2023-07-29T00:41:29;2.50;;;1.97;;
7410;SDS011;3747;48.628;9.058;2023-07-29T00:43:57;1.90;;;1.67;;
7410;SDS011;3747;48.628;9.058;2023-07-29T00:46:23;2.10;;;1.87;;
7410;SDS011;3747;48.628;9.058;2023-07-29T00:48:51;2.63;;;2.10;;
7410;SDS011;3747;48.628;9.058;2023-07-29T00:51:17;2.20;;;1.90;;
7410;SDS011;3747;48.628;9.058;2023-07-29T00:53:44;4.37;;;2.00;;
7410;SDS011;3747;48.628;9.058;2023-07-29T00:56:11;2.00;;;1.80;;
7410;SDS011;3747;48.628;9.058;2023-07-29T00:58:38;2.50;;;1.90;;
7410;SDS011;3747;48.628;9.058;2023-07-29T01:01:06;2.03;;;1.83;;
7410;SDS011;3747;48.628;9.058;2023-07-29T01:03:33;2.20;;;2.10;;
7410;SDS011;3747;48.628;9.058;2023-07-29T01:06:04;5.73;;;2.10;;
7410;SDS011;3747;48.628;9.058;2023-07-29T01:08:38;2.20;;;1.70;;
7410;SDS011;3747;48.628;9.058;2023-07-29T01:11:14;2.23;;;1.87;;
7410;SDS011;3747;48.628;9.058;2023-07-29T01:13:53;1.73;;;1.63;;
7410;SDS011;3747;48.628;9.058;2023-07-29T01:16:28;2.60;;;1.53;;
7410;SDS011;3747;48.628;9.058;2023-07-29T01:18:59;1.93;;;1.83;;
7410;SDS011;3747;48.628;9.058;2023-07-29T01:21:32;2.70;;;1.73;;
7410;SDS011;3747;48.628;9.058;2023-07-29T01:24:03;3.30;;;1.90;;
7410;SDS011;3747;48.628;9.058;2023-07-29T01:26:29;2.77;;;1.70;;
7410;SDS011;3747;48.628;9.058;2023-07-29T01:28:56;3.10;;;1.93;;
7410;SDS011;3747;48.628;9.058;2023-07-29T01:31:25;4.03;;;2.00;;
7410;SDS011;3747;48.628;9.058;2023-07-29T01:33:57;4.13;;;1.90;;
7410;SDS011;3747;48.628;9.058;2023-07-29T01:36:28;2.23;;;1.80;;
7410;SDS011;3747;48.628;9.058;2023-07-29T01:38:57;2.03;;;1.93;;
7410;SDS011;3747;48.628;9.058;2023-07-29T01:41:26;1.87;;;1.77;;
7410;SDS011;3747;48.628;9.058;2023-07-29T01:43:53;2.00;;;1.90;;
7410;SDS011;3747;48.628;9.058;2023-07-29T01:46:20;1.97;;;1.87;;
7410;SDS011;3747;48.628;9.058;2023-07-29T01:48:47;2.70;;;1.90;;
7410;SDS011;3747;48.628;9.058;2023-07-29T01:51:14;1.90;;;1.80;;
7410;SDS011;3747;48.628;9.058;2023-07-29T01:53:40;1.80;;;1.70;;
7410;SDS011;3747;48.628;9.058;2023-07-29T01:56:07;1.83;;;1.50;;
7410;SDS011;3747;48.628;9.058;2023-07-29T01:58:35;1.97;;;1.87;;
7410;SDS011;3747;48.628;9.058;2023-07-29T02:01:02;1.63;;;1.50;;
7410;SDS011;3747;48.628;9.058;2023-07-29T02:03:29;2.40;;;1.70;;
7410;SDS011;3747;48.628;9.058;2023-07-29T02:05:55;2.03;;;1.83;;
7410;SDS011;3747;48.628;9.058;2023-07-29T02:08:22;1.70;;;1.60;;
7410;SDS011;3747;48.628;9.058;2023-07-29T02:10:49;2.30;;;1.60;;
7410;SDS011;3747;48.628;9.058;2023-07-29T02:13:15;4.00;;;1.80;;
7410;SDS011;3747;48.628;9.058;2023-07-29T02:15:43;4.17;;;1.77;;
7410;SDS011;3747;48.628;9.058;2023-07-29T02:18:10;4.07;;;2.20;;
7410;SDS011;3747;48.628;9.058;2023-07-29T02:20:37;2.00;;;1.80;;
7410;SDS011;3747;48.628;9.058;2023-07-29T02:23:04;2.50;;;2.30;;
7410;SDS011;3747;48.628;9.058;2023-07-29T02:25:30;2.53;;;1.60;;
7410;SDS011;3747;48.628;9.058;2023-07-29T02:27:57;3.23;;;2.43;;
7410;SDS011;3747;48.628;9.058;2023-07-29T02:30:24;2.47;;;1.93;;
7410;SDS011;3747;48.628;9.058;2023-07-29T02:32:52;2.50;;;2.23;;
7410;SDS011;3747;48.628;9.058;2023-07-29T02:35:18;3.23;;;2.00;;
7410;SDS011;3747;48.628;9.058;2023-07-29T02:37:45;2.43;;;1.70;;
7410;SDS011;3747;48.628;9.058;2023-07-29T02:40:12;3.23;;;1.80;;
7410;SDS011;3747;48.628;9.058;2023-07-29T02:42:39;1.73;;;1.63;;
7410;SDS011;3747;48.628;9.058;2023-07-29T02:45:06;3.60;;;2.20;;
7410;SDS011;3747;48.628;9.058;2023-07-29T02:47:35;2.73;;;1.90;;
7410;SDS011;3747;48.628;9.058;2023-07-29T02:50:04;2.33;;;2.13;;
7410;SDS011;3747;48.628;9.058;2023-07-29T02:52:31;1.87;;;1.77;;
7410;SDS011;3747;48.628;9.058;2023-07-29T02:54:57;4.80;;;1.93;;
7410;SDS011;3747;48.628;9.058;2023-07-29T02:57:24;2.93;;;2.03;;
7410;SDS011;3747;48.628;9.058;2023-07-29T02:59:51;2.33;;;1.60;;
7410;SDS011;3747;48.628;9.058;2023-07-29T03:02:17;1.50;;;1.40;;
7410;SDS011;3747;48.628;9.058;2023-07-29T03:04:44;3.60;;;1.77;;
7410;SDS011;3747;48.628;9.058;2023-07-29T03:07:12;2.57;;;2.00;;
7410;SDS011;3747;48.628;9.058;2023-07-29T03:09:39;2.73;;;1.90;;
7410;SDS011;3747;48.628;9.058;2023-07-29T03:12:07;3.50;;;1.70;;
7410;SDS011;3747;48.628;9.058;2023-07-29T03:14:33;2.30;;;1.90;;
7410;SDS011;3747;48.628;9.058;2023-07-29T03:17:02;2.80;;;1.83;;
7410;SDS011;3747;48.628;9.058;2023-07-29T03:19:30;2.67;;;1.50;;
7410;SDS011;3747;48.628;9.058;2023-07-29T03:21:56;3.00;;;1.97;;
7410;SDS011;3747;48.628;9.058;2023-07-29T03:24:24;2.43;;;1.80;;
7410;SDS011;3747;48.628;9.058;2023-07-29T03:26:51;1.87;;;1.70;;
7410;SDS011;3747;48.628;9.058;2023-07-29T03:29:18;1.50;;;1.40;;
7410;SDS011;3747;48.628;9.058;2023-07-29T03:31:44;1.70;;;1.60;;
7410;SDS011;3747;48.628;9.058;2023-07-29T03:34:11;1.90;;;1.70;;
7410;SDS011;3747;48.628;9.058;2023-07-29T03:36:38;2.40;;;1.67;;
7410;SDS011;3747;48.628;9.058;2023-07-29T03:39:05;3.07;;;1.60;;
7410;SDS011;3747;48.628;9.058;2023-07-29T03:41:34;1.63;;;1.53;;
7410;SDS011;3747;48.628;9.058;2023-07-29T03:44:00;4.80;;;2.10;;
7410;SDS011;3747;48.628;9.058;2023-07-29T03:46:27;1.57;;;1.43;;
7410;SDS011;3747;48.628;9.058;2023-07-29T03:48:54;2.80;;;1.70;;
7410;SDS011;3747;48.628;9.058;2023-07-29T03:51:21;3.07;;;1.50;;
7410;SDS011;3747;48.628;9.058;2023-07-29T03:53:48;2.80;;;1.50;;
7410;SDS011;3747;48.628;9.058;2023-07-29T03:56:15;1.60;;;1.10;;
7410;SDS011;3747;48.628;9.058;2023-07-29T03:58:43;1.03;;;1.03;;
7410;SDS011;3747;48.628;9.058;2023-07-29T04:01:11;2.90;;;1.43;;
7410;SDS011;3747;48.628;9.058;2023-07-29T04:03:38;1.53;;;1.23;;
7410;SDS011;3747;48.628;9.058;2023-07-29T04:06:05;1.20;;;0.90;;
7410;SDS011;3747;48.628;9.058;2023-07-29T04:08:32;1.43;;;1.20;;
7410;SDS011;3747;48.628;9.058;2023-07-29T04:10:59;1.37;;;1.20;;
7410;SDS011;3747;48.628;9.058;2023-07-29T04:13:26;1.83;;;1.27;;
7410;SDS011;3747;48.628;9.058;2023-07-29T04:15:54;1.93;;;1.33;;
7410;SDS011;3747;48.628;9.058;2023-07-29T04:18:20;1.53;;;1.30;;
7410;SDS011;3747;48.628;9.058;2023-07-29T04:20:47;2.70;;;1.07;;
7410;SDS011;3747;48.628;9.058;2023-07-29T04:23:14;1.80;;;1.20;;
7410;SDS011;3747;48.628;9.058;2023-07-29T04:25:40;2.10;;;1.23;;
7410;SDS011;3747;48.628;9.058;2023-07-29T04:28:07;5.03;;;1.67;;
7410;SDS011;3747;48.628;9.058;2023-07-29T04:30:34;3.73;;;1.53;;
7410;SDS011;3747;48.628;9.058;2023-07-29T04:33:02;4.20;;;1.83;;
7410;SDS011;3747;48.628;9.058;2023-07-29T04:35:29;3.33;;;2.27;;
7410;SDS011;3747;48.628;9.058;2023-07-29T04:37:55;2.93;;;2.20;;
7410;SDS011;3747;48.628;9.058;2023-07-29T04:40:22;2.90;;;1.93;;
7410;SDS011;3747;48.628;9.058;2023-07-29T04:42:49;4.23;;;2.07;;
7410;SDS011;3747;48.628;9.058;2023-07-29T04:45:17;4.10;;;2.40;;
7410;SDS011;3747;48.628;9.058;2023-07-29T04:47:43;2.33;;;2.13;;
7410;SDS011;3747;48.628;9.058;2023-07-29T04:50:11;3.60;;;2.17;;
7410;SDS011;3747;48.628;9.058;2023-07-29T04:52:38;2.80;;;2.20;;
7410;SDS011;3747;48.628;9.058;2023-07-29T04:55:05;3.53;;;2.07;;
7410;SDS011;3747;48.628;9.058;2023-07-29T04:57:32;4.80;;;2.90;;
7410;SDS011;3747;48.628;9.058;2023-07-29T04:59:59;4.40;;;2.40;;
7410;SDS011;3747;48.628;9.058;2023-07-29T05:02:25;9.43;;;3.27;;
7410;SDS011;3747;48.628;9.058;2023-07-29T05:04:52;8.53;;;3.80;;
7410;SDS011;3747;48.628;9.058;2023-07-29T05:07:20;3.43;;;2.90;;
7410;SDS011;3747;48.628;9.058;2023-07-29T05:09:47;7.40;;;3.40;;
7410;SDS011;3747;48.628;9.058;2023-07-29T05:12:14;3.77;;;3.40;;
7410;SDS011;3747;48.628;9.058;2023-07-29T05:14:40;5.17;;;3.73;;
7410;SDS011;3747;48.628;9.058;2023-07-29T05:17:07;4.50;;;3.43;;
7410;SDS011;3747;48.628;9.058;2023-07-29T05:19:34;4.43;;;3.67;;
7410;SDS011;3747;48.628;9.058;2023-07-29T05:22:00;3.00;;;2.70;;
7410;SDS011;3747;48.628;9.058;2023-07-29T05:24:28;4.20;;;3.13;;
7410;SDS011;3747;48.628;9.058;2023-07-29T05:26:55;4.33;;;3.10;;
7410;SDS011;3747;48.628;9.058;2023-07-29T05:29:22;3.30;;;3.00;;
7410;SDS011;3747;48.628;9.058;2023-07-29T05:31:48;3.03;;;2.73;;
7410;SDS011;3747;48.628;9.058;2023-07-29T05:34:15;2.83;;;2.60;;
7410;SDS011;3747;48.628;9.058;2023-07-29T05:36:42;2.83;;;2.40;;
7410;SDS011;3747;48.628;9.058;2023-07-29T05:39:08;5.50;;;2.80;;
7410;SDS011;3747;48.628;9.058;2023-07-29T05:41:38;2.97;;;2.27;;
7410;SDS011;3747;48.628;9.058;2023-07-29T05:44:05;2.13;;;1.93;;
7410;SDS011;3747;48.628;9.058;2023-07-29T05:46:31;2.37;;;1.73;;
7410;SDS011;3747;48.628;9.058;2023-07-29T05:48:58;3.73;;;1.70;;
7410;SDS011;3747;48.628;9.058;2023-07-29T05:51:25;3.43;;;1.80;;
7410;SDS011;3747;48.628;9.058;2023-07-29T05:53:51;3.07;;;2.00;;
7410;SDS011;3747;48.628;9.058;2023-07-29T05:56:18;2.07;;;1.83;;
7410;SDS011;3747;48.628;9.058;2023-07-29T05:58:46;3.73;;;1.80;;
7410;SDS011;3747;48.628;9.058;2023-07-29T06:01:13;1.87;;;1.77;;
7410;SDS011;3747;48.628;9.058;2023-07-29T06:03:39;1.53;;;1.43;;
7410;SDS011;3747;48.628;9.058;2023-07-29T06:06:06;2.17;;;1.47;;
7410;SDS011;3747;48.628;9.058;2023-07-29T06:08:33;1.77;;;1.67;;
7410;SDS011;3747;48.628;9.058;2023-07-29T06:11:00;1.83;;;1.73;;
7410;SDS011;3747;48.628;9.058;2023-07-29T06:13:26;2.43;;;1.90;;
7410;SDS011;3747;48.628;9.058;2023-07-29T06:15:55;2.90;;;1.60;;
7410;SDS011;3747;48.628;9.058;2023-07-29T06:18:22;3.00;;;1.70;;
7410;SDS011;3747;48.628;9.058;2023-07-29T06:20:48;2.53;;;2.13;;
7410;SDS011;3747;48.628;9.058;2023-07-29T06:23:15;2.23;;;2.00;;
7410;SDS011;3747;48.628;9.058;2023-07-29T06:25:42;2.33;;;1.83;;
7410;SDS011;3747;48.628;9.058;2023-07-29T06:28:09;1.80;;;1.70;;
7410;SDS011;3747;48.628;9.058;2023-07-29T06:30:35;2.60;;;1.80;;
7410;SDS011;3747;48.628;9.058;2023-07-29T06:33:03;1.60;;;1.50;;
7410;SDS011;3747;48.628;9.058;2023-07-29T06:35:30;3.40;;;1.93;;
7410;SDS011;3747;48.628;9.058;2023-07-29T06:37:57;2.87;;;2.20;;
7410;SDS011;3747;48.628;9.058;2023-07-29T06:40:23;2.73;;;2.17;;
7410;SDS011;3747;48.628;9.058;2023-07-29T06:42:50;4.80;;;2.03;;
7410;SDS011;3747;48.628;9.058;2023-07-29T06:45:17;7.87;;;2.63;;
7410;SDS011;3747;48.628;9.058;2023-07-29T06:47:44;4.20;;;2.70;;
7410;SDS011;3747;48.628;9.058;2023-07-29T06:50:12;4.60;;;2.67;;
7410;SDS011;3747;48.628;9.058;2023-07-29T06:52:39;7.07;;;2.83;;
7410;SDS011;3747;48.628;9.058;2023-07-29T06:55:06;3.60;;;2.77;;
7410;SDS011;3747;48.628;9.058;2023-07-29T06:57:33;5.07;;;2.50;;
7410;SDS011;3747;48.628;9.058;2023-07-29T07:00:00;5.63;;;3.53;;
7410;SDS011;3747;48.628;9.058;2023-07-29T07:02:27;3.67;;;1.83;;
7410;SDS011;3747;48.628;9.058;2023-07-29T07:04:54;2.03;;;1.50;;
7410;SDS011;3747;48.628;9.058;2023-07-29T07:07:22;2.37;;;1.37;;
7410;SDS011;3747;48.628;9.058;2023-07-29T07:09:48;1.40;;;1.30;;
7410;SDS011;3747;48.628;9.058;2023-07-29T07:12:15;1.03;;;1.00;;
7410;SDS011;3747;48.628;9.058;2023-07-29T07:14:42;1.93;;;1.30;;
7410;SDS011;3747;48.628;9.058;2023-07-29T07:17:08;1.20;;;1.10;;
7410;SDS011;3747;48.628;9.058;2023-07-29T07:19:35;1.30;;;1.20;;
7410;SDS011;3747;48.628;9.058;2023-07-29T07:22:02;1.77;;;1.17;;
7410;SDS011;3747;48.628;9.058;2023-07-29T07:24:30;2.40;;;1.60;;
7410;SDS011;3747;48.628;9.058;2023-07-29T07:26:57;2.93;;;1.67;;
7410;SDS011;3747;48.628;9.058;2023-07-29T07:29:23;3.40;;;3.10;;
7410;SDS011;3747;48.628;9.058;2023-07-29T07:31:51;3.23;;;1.97;;
7410;SDS011;3747;48.628;9.058;2023-07-29T07:34:18;3.27;;;1.67;;
7410;SDS011;3747;48.628;9.058;2023-07-29T07:36:45;2.03;;;1.83;;
7410;SDS011;3747;48.628;9.058;2023-07-29T07:39:12;2.77;;;1.93;;
7410;SDS011;3747;48.628;9.058;2023-07-29T07:41:40;1.83;;;1.73;;
7410;SDS011;3747;48.628;9.058;2023-07-29T07:44:07;1.93;;;1.80;;
7410;SDS011;3747;48.628;9.058;2023-07-29T07:46:36;1.83;;;1.73;;
7410;SDS011;3747;48.628;9.058;2023-07-29T07:49:02;2.80;;;2.03;;
7410;SDS011;3747;48.628;9.058;2023-07-29T07:51:29;2.10;;;2.00;;
7410;SDS011;3747;48.628;9.058;2023-07-29T07:53:56;2.03;;;1.83;;
7410;SDS011;3747;48.628;9.058;2023-07-29T07:56:22;4.23;;;2.30;;
7410;SDS011;3747;48.628;9.058;2023-07-29T07:58:50;2.23;;;2.03;;
7410;SDS011;3747;48.628;9.058;2023-07-29T08:01:17;2.87;;;1.87;;
7410;SDS011;3747;48.628;9.058;2023-07-29T08:03:44;3.40;;;2.20;;
7410;SDS011;3747;48.628;9.058;2023-07-29T08:06:11;1.93;;;1.80;;
7410;SDS011;3747;48.628;9.058;2023-07-29T08:08:38;2.23;;;2.03;;
7410;SDS011;3747;48.628;9.058;2023-07-29T08:11:04;2.83;;;1.73;;
7410;SDS011;3747;48.628;9.058;2023-07-29T08:13:31;2.30;;;2.00;;
7410;SDS011;3747;48.628;9.058;2023-07-29T08:15:59;2.07;;;1.97;;
7410;SDS011;3747;48.628;9.058;2023-07-29T08:18:26;1.70;;;1.53;;
7410;SDS011;3747;48.628;9.058;2023-07-29T08:20:53;1.97;;;1.53;;
7410;SDS011;3747;48.628;9.058;2023-07-29T08:23:23;1.60;;;1.50;;
7410;SDS011;3747;48.628;9.058;2023-07-29T08:25:51;1.70;;;1.60;;
7410;SDS011;3747;48.628;9.058;2023-07-29T08:28:19;2.27;;;1.60;;
7410;SDS011;3747;48.628;9.058;2023-07-29T08:30:46;1.70;;;1.60;;
7410;SDS011;3747;48.628;9.058;2023-07-29T08:33:14;3.03;;;1.67;;
7410;SDS011;3747;48.628;9.058;2023-07-29T08:35:41;1.70;;;1.60;;
7410;SDS011;3747;48.628;9.058;2023-07-29T08:38:07;1.57;;;1.47;;
7410;SDS011;3747;48.628;9.058;2023-07-29T08:40:34;2.20;;;1.40;;
7410;SDS011;3747;48.628;9.058;2023-07-29T08:43:07;1.73;;;1.43;;
7410;SDS011;3747;48.628;9.058;2023-07-29T08:45:35;1.63;;;1.53;;
7410;SDS011;3747;48.628;9.058;2023-07-29T08:48:02;1.30;;;1.20;;
7410;SDS011;3747;48.628;9.058;2023-07-29T08:50:34;1.40;;;1.30;;
7410;SDS011;3747;48.628;9.058;2023-07-29T08:53:03;3.30;;;1.40;;
7410;SDS011;3747;48.628;9.058;2023-07-29T08:55:30;2.07;;;1.13;;
7410;SDS011;3747;48.628;9.058;2023-07-29T08:57:58;1.77;;;1.60;;
7410;SDS011;3747;48.628;9.058;2023-07-29T09:00:26;3.53;;;1.17;;
7410;SDS011;3747;48.628;9.058;2023-07-29T09:02:53;3.93;;;0.87;;
7410;SDS011;3747;48.628;9.058;2023-07-29T09:05:20;1.03;;;0.90;;
7410;SDS011;3747;48.628;9.058;2023-07-29T09:07:48;1.27;;;1.10;;
7410;SDS011;3747;48.628;9.058;2023-07-29T09:10:20;1.40;;;1.20;;
7410;SDS011;3747;48.628;9.058;2023-07-29T09:12:47;1.90;;;1.20;;
7410;SDS011;3747;48.628;9.058;2023-07-29T09:15:20;2.73;;;1.07;;
7410;SDS011;3747;48.628;9.058;2023-07-29T09:17:53;2.40;;;1.27;;
7410;SDS011;3747;48.628;9.058;2023-07-29T09:20:23;1.97;;;1.40;;
7410;SDS011;3747;48.628;9.058;2023-07-29T09:22:51;1.37;;;1.23;;
7410;SDS011;3747;48.628;9.058;2023-07-29T09:25:22;1.23;;;1.07;;
7410;SDS011;3747;48.628;9.058;2023-07-29T09:27:49;1.40;;;1.30;;
7410;SDS011;3747;48.628;9.058;2023-07-29T09:30:16;1.17;;;1.07;;
7410;SDS011;3747;48.628;9.058;2023-07-29T09:32:43;1.13;;;1.07;;
7410;SDS011;3747;48.628;9.058;2023-07-29T09:35:11;1.40;;;1.30;;
7410;SDS011;3747;48.628;9.058;2023-07-29T09:37:37;1.30;;;1.20;;
7410;SDS011;3747;48.628;9.058;2023-07-29T09:40:06;1.30;;;1.10;;
7410;SDS011;3747;48.628;9.058;2023-07-29T09:42:39;1.23;;;1.03;;
7410;SDS011;3747;48.628;9.058;2023-07-29T09:45:06;1.70;;;1.60;;
7410;SDS011;3747;48.628;9.058;2023-07-29T09:47:33;1.60;;;1.43;;
7410;SDS011;3747;48.628;9.058;2023-07-29T09:50:00;1.60;;;1.50;;
7410;SDS011;3747;48.628;9.058;2023-07-29T09:52:26;1.57;;;1.33;;
7410;SDS011;3747;48.628;9.058;2023-07-29T09:54:54;1.50;;;1.40;;
7410;SDS011;3747;48.628;9.058;2023-07-29T09:57:22;3.63;;;1.43;;
7410;SDS011;3747;48.628;9.058;2023-07-29T09:59:55;1.53;;;1.30;;
7410;SDS011;3747;48.628;9.058;2023-07-29T10:02:21;1.70;;;1.40;;
7410;SDS011;3747;48.628;9.058;2023-07-29T10:04:50;2.13;;;1.33;;
7410;SDS011;3747;48.628;9.058;2023-07-29T10:07:18;1.77;;;1.47;;
7410;SDS011;3747;48.628;9.058;2023-07-29T10:09:45;1.43;;;1.33;;
7410;SDS011;3747;48.628;9.058;2023-07-29T10:12:12;1.70;;;1.47;;
7410;SDS011;3747;48.628;9.058;2023-07-29T10:14:41;2.43;;;1.43;;
7410;SDS011;3747;48.628;9.058;2023-07-29T10:17:08;1.73;;;1.47;;
7410;SDS011;3747;48.628;9.058;2023-07-29T10:19:35;1.43;;;1.33;;
7410;SDS011;3747;48.628;9.058;2023-07-29T10:22:03;2.07;;;1.30;;
7410;SDS011;3747;48.628;9.058;2023-07-29T10:24:32;2.53;;;1.60;;
7410;SDS011;3747;48.628;9.058;2023-07-29T10:26:59;1.57;;;1.47;;
7410;SDS011;3747;48.628;9.058;2023-07-29T10:29:29;2.10;;;1.47;;
7410;SDS011;3747;48.628;9.058;2023-07-29T10:31:59;1.83;;;1.27;;
7410;SDS011;3747;48.628;9.058;2023-07-29T10:34:28;1.57;;;1.47;;
7410;SDS011;3747;48.628;9.058;2023-07-29T10:36:55;2.20;;;1.40;;
7410;SDS011;3747;48.628;9.058;2023-07-29T10:39:23;1.60;;;1.50;;
7410;SDS011;3747;48.628;9.058;2023-07-29T10:41:57;1.60;;;1.50;;
7410;SDS011;3747;48.628;9.058;2023-07-29T10:47:16;1.73;;;1.40;;
7410;SDS011;3747;48.628;9.058;2023-07-29T10:49:44;1.80;;;1.70;;
7410;SDS011;3747;48.628;9.058;2023-07-29T10:52:12;1.60;;;1.40;;
7410;SDS011;3747;48.628;9.058;2023-07-29T10:54:44;2.13;;;1.47;;
7410;SDS011;3747;48.628;9.058;2023-07-29T10:57:14;3.33;;;1.70;;
7410;SDS011;3747;48.628;9.058;2023-07-29T10:59:52;1.60;;;1.50;;
7410;SDS011;3747;48.628;9.058;2023-07-29T11:02:22;1.20;;;1.10;;
7410;SDS011;3747;48.628;9.058;2023-07-29T11:04:55;3.40;;;1.30;;
7410;SDS011;3747;48.628;9.058;2023-07-29T11:07:22;2.10;;;1.30;;
7410;SDS011;3747;48.628;9.058;2023-07-29T11:09:53;1.80;;;1.53;;
7410;SDS011;3747;48.628;9.058;2023-07-29T11:12:34;1.83;;;1.30;;
7410;SDS011;3747;48.628;9.058;2023-07-29T11:15:02;1.77;;;1.40;;
7410;SDS011;3747;48.628;9.058;2023-07-29T11:17:32;1.43;;;1.30;;
7410;SDS011;3747;48.628;9.058;2023-07-29T11:20:00;3.30;;;1.67;;
7410;SDS011;3747;48.628;9.058;2023-07-29T11:22:28;1.50;;;1.40;;
7410;SDS011;3747;48.628;9.058;2023-07-29T11:24:55;1.70;;;1.37;;
7410;SDS011;3747;48.628;9.058;2023-07-29T11:27:22;1.70;;;1.60;;
7410;SDS011;3747;48.628;9.058;2023-07-29T11:29:48;1.77;;;1.67;;
7410;SDS011;3747;48.628;9.058;2023-07-29T11:32:15;2.07;;;1.47;;
7410;SDS011;3747;48.628;9.058;2023-07-29T11:34:43;2.37;;;1.47;;
7410;SDS011;3747;48.628;9.058;2023-07-29T11:37:10;2.37;;;1.80;;
7410;SDS011;3747;48.628;9.058;2023-07-29T11:39:39;1.77;;;1.67;;
7410;SDS011;3747;48.628;9.058;2023-07-29T11:42:06;2.37;;;1.87;;
7410;SDS011;3747;48.628;9.058;2023-07-29T11:44:33;1.50;;;1.40;;
7410;SDS011;3747;48.628;9.058;2023-07-29T11:47:00;2.60;;;1.80;;
7410;SDS011;3747;48.628;9.058;2023-07-29T11:49:28;2.13;;;1.40;;
7410;SDS011;3747;48.628;9.058;2023-07-29T11:51:56;1.90;;;1.80;;
7410;SDS011;3747;48.628;9.058;2023-07-29T11:54:23;1.90;;;1.50;;
7410;SDS011;3747;48.628;9.058;2023-07-29T11:56:51;3.07;;;1.77;;
7410;SDS011;3747;48.628;9.058;2023-07-29T11:59:17;1.80;;;1.70;;
7410;SDS011;3747;48.628;9.058;2023-07-29T12:01:45;1.57;;;1.47;;
7410;SDS011;3747;48.628;9.058;2023-07-29T12:04:12;3.43;;;1.60;;
7410;SDS011;3747;48.628;9.058;2023-07-29T12:06:40;1.67;;;1.57;;
7410;SDS011;3747;48.628;9.058;2023-07-29T12:09:08;1.63;;;1.47;;
7410;SDS011;3747;48.628;9.058;2023-07-29T12:11:35;2.60;;;2.00;;
7410;SDS011;3747;48.628;9.058;2023-07-29T12:14:02;2.13;;;1.57;;
7410;SDS011;3747;48.628;9.058;2023-07-29T12:16:28;2.50;;;1.47;;
7410;SDS011;3747;48.628;9.058;2023-07-29T12:18:59;1.40;;;1.20;;
7410;SDS011;3747;48.628;9.058;2023-07-29T12:21:26;1.93;;;1.57;;
7410;SDS011;3747;48.628;9.058;2023-07-29T12:23:54;1.67;;;1.50;;
7410;SDS011;3747;48.628;9.058;2023-07-29T12:26:27;1.53;;;1.23;;
7410;SDS011;3747;48.628;9.058;2023-07-29T12:28:54;1.47;;;1.37;;
7410;SDS011;3747;48.628;9.058;2023-07-29T12:31:21;1.47;;;1.27;;
7410;SDS011;3747;48.628;9.058;2023-07-29T12:33:55;3.03;;;1.80;;
7410;SDS011;3747;48.628;9.058;2023-07-29T12:36:22;1.60;;;1.50;;
7410;SDS011;3747;48.628;9.058;2023-07-29T12:38:53;1.70;;;1.60;;
7410;SDS011;3747;48.628;9.058;2023-07-29T12:41:24;1.70;;;1.60;;
7410;SDS011;3747;48.628;9.058;2023-07-29T12:43:52;1.87;;;1.67;;
7410;SDS011;3747;48.628;9.058;2023-07-29T12:46:19;1.97;;;1.50;;
7410;SDS011;3747;48.628;9.058;2023-07-29T12:48:46;1.50;;;1.40;;
7410;SDS011;3747;48.628;9.058;2023-07-29T12:51:12;3.43;;;1.60;;
7410;SDS011;3747;48.628;9.058;2023-07-29T12:53:39;1.30;;;1.20;;
7410;SDS011;3747;48.628;9.058;2023-07-29T12:56:06;1.43;;;1.33;;
7410;SDS011;3747;48.628;9.058;2023-07-29T12:58:33;1.40;;;1.30;;
7410;SDS011;3747;48.628;9.058;2023-07-29T13:01:01;1.87;;;1.27;;
7410;SDS011;3747;48.628;9.058;2023-07-29T13:03:27;2.20;;;1.50;;
7410;SDS011;3747;48.628;9.058;2023-07-29T13:05:54;1.50;;;1.40;;
7410;SDS011;3747;48.628;9.058;2023-07-29T13:08:21;1.53;;;1.43;;
7410;SDS011;3747;48.628;9.058;2023-07-29T13:10:48;1.73;;;1.57;;
7410;SDS011;3747;48.628;9.058;2023-07-29T13:13:14;1.60;;;1.50;;
7410;SDS011;3747;48.628;9.058;2023-07-29T13:15:41;1.43;;;1.30;;
7410;SDS011;3747;48.628;9.058;2023-07-29T13:18:09;2.27;;;1.60;;
7410;SDS011;3747;48.628;9.058;2023-07-29T13:20:36;1.53;;;1.43;;
7410;SDS011;3747;48.628;9.058;2023-07-29T13:23:02;2.23;;;1.57;;
7410;SDS011;3747;48.628;9.058;2023-07-29T13:25:29;2.40;;;1.20;;
7410;SDS011;3747;48.628;9.058;2023-07-29T13:27:56;1.20;;;1.10;;
7410;SDS011;3747;48.628;9.058;2023-07-29T13:30:23;1.60;;;1.50;;
7410;SDS011;3747;48.628;9.058;2023-07-29T13:32:49;1.27;;;1.27;;
7410;SDS011;3747;48.628;9.058;2023-07-29T13:35:17;1.43;;;1.33;;
7410;SDS011;3747;48.628;9.058;2023-07-29T13:37:44;1.90;;;1.40;;
7410;SDS011;3747;48.628;9.058;2023-07-29T13:40:11;1.50;;;1.40;;
7410;SDS011;3747;48.628;9.058;2023-07-29T13:42:37;1.70;;;1.60;;
7410;SDS011;3747;48.628;9.058;2023-07-29T13:45:04;1.60;;;1.50;;
7410;SDS011;3747;48.628;9.058;2023-07-29T13:47:32;1.90;;;1.60;;
7410;SDS011;3747;48.628;9.058;2023-07-29T13:49:59;1.93;;;1.30;;
7410;SDS011;3747;48.628;9.058;2023-07-29T13:52:27;1.80;;;1.70;;
7410;SDS011;3747;48.628;9.058;2023-07-29T13:54:53;1.30;;;1.20;;
7410;SDS011;3747;48.628;9.058;2023-07-29T13:57:20;1.40;;;1.30;;
7410;SDS011;3747;48.628;9.058;2023-07-29T13:59:47;1.50;;;1.40;;
7410;SDS011;3747;48.628;9.058;2023-07-29T14:02:13;1.60;;;1.50;;
7410;SDS011;3747;48.628;9.058;2023-07-29T14:04:40;1.60;;;1.50;;
7410;SDS011;3747;48.628;9.058;2023-07-29T14:07:07;1.40;;;1.30;;
7410;SDS011;3747;48.628;9.058;2023-07-29T14:09:35;1.97;;;1.30;;
7410;SDS011;3747;48.628;9.058;2023-07-29T14:12:02;1.40;;;1.30;;
7410;SDS011;3747;48.628;9.058;2023-07-29T14:14:29;1.50;;;1.40;;
7410;SDS011;3747;48.628;9.058;2023-07-29T14:16:56;1.33;;;1.23;;
7410;SDS011;3747;48.628;9.058;2023-07-29T14:19:23;1.87;;;1.40;;
7410;SDS011;3747;48.628;9.058;2023-07-29T14:21:50;2.87;;;1.43;;
7410;SDS011;3747;48.628;9.058;2023-07-29T14:24:16;1.53;;;1.33;;
7410;SDS011;3747;48.628;9.058;2023-07-29T14:26:46;1.50;;;1.40;;
7410;SDS011;3747;48.628;9.058;2023-07-29T14:29:12;1.63;;;1.47;;
7410;SDS011;3747;48.628;9.058;2023-07-29T14:31:39;1.70;;;1.60;;
7410;SDS011;3747;48.628;9.058;2023-07-29T14:34:06;2.47;;;1.57;;
7410;SDS011;3747;48.628;9.058;2023-07-29T14:36:32;1.63;;;1.53;;
7410;SDS011;3747;48.628;9.058;2023-07-29T14:38:59;1.30;;;1.20;;
7410;SDS011;3747;48.628;9.058;2023-07-29T14:41:26;1.40;;;1.30;;
7410;SDS011;3747;48.628;9.058;2023-07-29T14:43:54;1.83;;;1.40;;
7410;SDS011;3747;48.628;9.058;2023-07-29T14:46:20;1.77;;;1.43;;
7410;SDS011;3747;48.628;9.058;2023-07-29T14:48:47;1.93;;;1.33;;
7410;SDS011;3747;48.628;9.058;2023-07-29T14:51:14;2.40;;;1.40;;
7410;SDS011;3747;48.628;9.058;2023-07-29T14:53:41;1.70;;;1.60;;
7410;SDS011;3747;48.628;9.058;2023-07-29T14:56:08;2.17;;;1.43;;
7410;SDS011;3747;48.628;9.058;2023-07-29T14:58:35;1.97;;;1.50;;
7410;SDS011;3747;48.628;9.058;2023-07-29T15:01:03;1.80;;;1.70;;
7410;SDS011;3747;48.628;9.058;2023-07-29T15:03:29;1.93;;;1.83;;
7410;SDS011;3747;48.628;9.058;2023-07-29T15:05:56;2.40;;;2.20;;
7410;SDS011;3747;48.628;9.058;2023-07-29T15:08:25;1.80;;;1.70;;
7410;SDS011;3747;48.628;9.058;2023-07-29T15:10:52;1.83;;;1.70;;
7410;SDS011;3747;48.628;9.058;2023-07-29T15:13:19;1.63;;;1.53;;
7410;SDS011;3747;48.628;9.058;2023-07-29T15:15:46;1.60;;;1.40;;
7410;SDS011;3747;48.628;9.058;2023-07-29T15:18:16;2.00;;;1.37;;
7410;SDS011;3747;48.628;9.058;2023-07-29T15:20:43;2.60;;;1.40;;
7410;SDS011;3747;48.628;9.058;2023-07-29T15:23:09;1.83;;;1.73;;